메인 페이지
METAR-TAF:

METAR-TAF

공항 :

캘굴리, 오스트레일리아

위도: 30-47S, 경도: 121-27E, 고도: 367m

현재 날씨관측

예보는 55분 전, 07:30시(UTC)에 발표되었습니다.
동북동11kt
온도 19°C
습도 43%
기압 1025 hPa
시정 10km 이상
고도 9700ft 상공 구름 보통

METAR: YPKG 250730Z AUTO 07011KT 9999 // SCT097 19/06 Q1025 RF00.0/000.0

시각: 16:25 (08:25 UTC)

예보

예보는 2 시간 57분 전, 05:28시(UTC)에 발표되었습니다.
예보 대상 시간: 25일 06시부터 26일 06시까지 (UTC)
14kt
시정 10km 이상
1500m 미만 상공 구름 및 적란운 없음
26일 0000시부터 (UTC)
북동10kt
시정 10km 이상
약한소나기,

TAF: YPKG 250528Z 2506/2606 09014KT CAVOK FM260000 04010KT 9999 -SHRA NSC

4,000개 이상의 공항 관측 자료 및 예보 (METAR 및 TAF 보고).

지도상에서 검색 가능한 기상관측소가 노란 점과 빨간 점으로 표시되어 있습니다.

기상관측소 명을 보려면 표시 위로 마우스를 이동하세요.

날씨 관측과 예보를 보려면 클릭하세요.

지도 변경 : 확대하려면 엑스 표시가 있는 녹색 버튼, 축소하려면 빼기 표시가 있는 녹색 버튼, 다음 페이지의 지도를 보려면 녹색 화살표를 클릭하세요.


METAR-TAF: